createdAt,value
2023-03-15T00:01:48.157Z,99.90
2023-03-15T00:04:14.858Z,99.90
2023-03-15T00:06:41.589Z,99.90
2023-03-15T00:09:08.321Z,99.90
2023-03-15T00:11:34.996Z,99.90
2023-03-15T00:14:02.512Z,99.90
2023-03-15T00:16:29.547Z,99.90
2023-03-15T00:18:56.825Z,99.90
2023-03-15T00:21:24.038Z,99.90
2023-03-15T00:23:51.179Z,99.90
2023-03-15T00:26:18.419Z,99.90
2023-03-15T00:28:45.180Z,99.90
2023-03-15T00:31:15.995Z,99.90
2023-03-15T00:33:43.427Z,99.90
2023-03-15T00:36:11.809Z,99.90
2023-03-15T00:38:40.507Z,99.90
2023-03-15T00:41:09.269Z,99.90
2023-03-15T00:43:36.169Z,99.90
2023-03-15T00:46:04.397Z,99.90
2023-03-15T00:48:31.808Z,99.90
2023-03-15T00:51:10.904Z,99.90
2023-03-15T00:53:39.483Z,99.90
2023-03-15T00:56:17.920Z,99.90
2023-03-15T00:58:44.640Z,99.90
2023-03-15T01:01:14.949Z,99.90
2023-03-15T01:03:42.426Z,99.90
2023-03-15T01:06:13.042Z,99.90
2023-03-15T01:08:40.199Z,99.90
2023-03-15T01:11:09.981Z,99.90
2023-03-15T01:13:37.070Z,99.90
2023-03-15T01:16:04.484Z,99.90
2023-03-15T01:18:31.502Z,99.90
2023-03-15T01:20:58.950Z,99.90
2023-03-15T01:23:26.106Z,99.90
2023-03-15T01:25:53.986Z,99.90
2023-03-15T01:28:20.676Z,99.90
2023-03-15T01:30:52.528Z,99.90
2023-03-15T01:33:20.206Z,99.90
2023-03-15T01:35:47.137Z,99.90
2023-03-15T01:38:14.667Z,99.90
2023-03-15T01:40:45.823Z,99.90
2023-03-15T01:43:21.393Z,99.90
2023-03-15T01:46:25.274Z,99.90
2023-03-15T01:49:15.253Z,99.90
2023-03-15T01:51:55.764Z,99.90
2023-03-15T01:55:01.307Z,99.90
2023-03-15T01:57:52.130Z,99.90
2023-03-15T02:00:20.444Z,99.90
2023-03-15T02:02:52.353Z,99.90
2023-03-15T02:05:24.045Z,99.90
2023-03-15T02:07:54.641Z,99.90
2023-03-15T02:10:37.294Z,99.90
2023-03-15T02:13:05.421Z,99.90
2023-03-15T02:15:32.402Z,99.90
2023-03-15T02:17:59.142Z,99.90
2023-03-15T02:20:40.831Z,99.90
2023-03-15T02:23:12.929Z,99.90
2023-03-15T02:25:54.872Z,99.90
2023-03-15T02:28:22.272Z,99.90
2023-03-15T02:30:50.143Z,99.90
2023-03-15T02:33:28.870Z,99.90
2023-03-15T02:36:06.153Z,99.90
2023-03-15T02:38:32.889Z,99.90
2023-03-15T02:41:00.829Z,99.90
2023-03-15T02:43:31.405Z,99.90
2023-03-15T02:45:59.595Z,99.90
2023-03-15T02:48:27.119Z,99.90
2023-03-15T02:50:53.848Z,99.90
2023-03-15T02:53:20.540Z,99.90
2023-03-15T02:55:47.244Z,99.90
2023-03-15T02:58:14.376Z,99.90
2023-03-15T03:00:41.045Z,99.90
2023-03-15T03:03:08.840Z,99.90
2023-03-15T03:05:35.528Z,99.90
2023-03-15T03:08:02.764Z,99.90
2023-03-15T03:10:29.535Z,99.90
2023-03-15T03:12:56.217Z,99.90
2023-03-15T03:15:22.951Z,99.90
2023-03-15T03:17:49.647Z,99.90
2023-03-15T03:20:16.548Z,99.90
2023-03-15T03:22:44.827Z,99.90
2023-03-15T03:25:12.774Z,99.90
2023-03-15T03:27:40.797Z,99.90
2023-03-15T03:30:11.449Z,99.90
2023-03-15T03:32:39.416Z,99.90
2023-03-15T03:35:06.603Z,99.90
2023-03-15T03:37:33.488Z,99.90
2023-03-15T03:40:00.173Z,99.90
2023-03-15T03:42:26.884Z,99.90
2023-03-15T03:44:54.535Z,99.90
2023-03-15T03:47:21.490Z,99.90
2023-03-15T03:49:48.200Z,99.90
2023-03-15T03:52:14.897Z,99.90
2023-03-15T03:54:42.693Z,99.90
2023-03-15T03:57:10.669Z,99.90
2023-03-15T03:59:37.410Z,99.90
2023-03-15T04:02:04.102Z,99.90
2023-03-15T04:04:30.794Z,99.90
2023-03-15T04:06:57.480Z,99.90
2023-03-15T04:09:24.995Z,99.90
2023-03-15T04:11:51.662Z,99.90
2023-03-15T04:14:18.542Z,99.90
2023-03-15T04:16:45.161Z,99.90
2023-03-15T04:19:12.882Z,99.90
2023-03-15T04:21:39.818Z,99.90
2023-03-15T04:24:07.423Z,99.90
2023-03-15T04:26:34.596Z,99.90
2023-03-15T04:29:01.352Z,99.90
2023-03-15T04:31:28.186Z,99.90
2023-03-15T04:33:55.805Z,99.90
2023-03-15T04:36:23.418Z,99.90
2023-03-15T04:38:50.965Z,99.90
2023-03-15T04:41:18.514Z,99.90
2023-03-15T04:43:45.411Z,99.90
2023-03-15T04:46:12.494Z,99.90
2023-03-15T04:48:39.200Z,99.90
2023-03-15T04:51:06.116Z,99.90
2023-03-15T04:53:33.007Z,99.90
2023-03-15T04:55:59.767Z,99.90
2023-03-15T04:58:26.504Z,99.90
2023-03-15T05:00:54.372Z,99.90
2023-03-15T05:03:21.425Z,99.90
2023-03-15T05:05:48.111Z,99.90
2023-03-15T05:08:15.030Z,99.90
2023-03-15T05:10:41.725Z,99.90
2023-03-15T05:13:08.412Z,99.90
2023-03-15T05:15:35.073Z,99.90
2023-03-15T05:18:01.723Z,99.90
2023-03-15T05:20:28.413Z,99.90
2023-03-15T05:22:55.138Z,99.90
2023-03-15T05:25:22.166Z,99.90
2023-03-15T05:27:48.879Z,99.90
2023-03-15T05:30:16.290Z,99.90
2023-03-15T05:32:44.765Z,99.90
2023-03-15T05:35:12.798Z,99.90
2023-03-15T05:37:40.244Z,99.90
2023-03-15T05:40:08.249Z,99.90
2023-03-15T05:42:35.184Z,99.90
2023-03-15T05:45:02.229Z,99.90
2023-03-15T05:47:28.910Z,99.90
2023-03-15T05:49:55.605Z,99.90
2023-03-15T05:52:22.441Z,99.90
2023-03-15T05:54:49.129Z,99.90
2023-03-15T05:57:15.833Z,99.90
2023-03-15T05:59:42.490Z,99.90
2023-03-15T06:02:09.190Z,99.90
2023-03-15T06:04:37.887Z,99.90
2023-03-15T06:07:04.808Z,99.90
2023-03-15T06:09:31.787Z,99.90
2023-03-15T06:11:59.131Z,99.90
2023-03-15T06:14:27.207Z,99.90
2023-03-15T06:16:53.997Z,99.90
2023-03-15T06:19:21.671Z,99.90
2023-03-15T06:21:48.687Z,99.90
2023-03-15T06:24:15.795Z,99.90
2023-03-15T06:26:42.606Z,99.90
2023-03-15T06:29:11.553Z,99.90
2023-03-15T06:31:38.217Z,99.90
2023-03-15T06:34:04.922Z,99.90
2023-03-15T06:36:31.973Z,99.90
2023-03-15T06:38:58.681Z,99.90
2023-03-15T06:41:26.732Z,99.90
2023-03-15T06:43:53.385Z,99.90
2023-03-15T06:46:20.095Z,99.90
2023-03-15T06:48:46.754Z,99.90
2023-03-15T06:51:13.451Z,99.90
2023-03-15T06:53:40.146Z,99.90
2023-03-15T06:56:07.082Z,99.90
2023-03-15T06:58:33.829Z,99.90
2023-03-15T07:01:00.638Z,99.90
2023-03-15T07:03:27.364Z,99.90
2023-03-15T07:05:54.712Z,99.90
2023-03-15T07:08:23.258Z,99.90
2023-03-15T07:10:50.420Z,99.90
2023-03-15T07:13:18.277Z,99.90
2023-03-15T07:15:45.324Z,99.90
2023-03-15T07:18:12.009Z,99.90
2023-03-15T07:20:38.737Z,99.90
2023-03-15T07:23:05.499Z,99.90
2023-03-15T07:25:33.341Z,99.90
2023-03-15T07:28:03.114Z,99.90
2023-03-15T07:30:29.831Z,99.90
2023-03-15T07:32:56.595Z,99.90
2023-03-15T07:35:23.415Z,99.90
2023-03-15T07:37:50.120Z,99.90
2023-03-15T07:40:16.937Z,99.90
2023-03-15T07:42:43.910Z,99.90
2023-03-15T07:45:11.155Z,99.90
2023-03-15T07:47:37.924Z,99.90
2023-03-15T07:50:06.347Z,99.90
2023-03-15T07:52:33.362Z,99.90
2023-03-15T07:55:00.093Z,99.90
2023-03-15T07:57:28.868Z,99.90
2023-03-15T07:59:56.103Z,99.90
2023-03-15T08:02:22.965Z,99.90
2023-03-15T08:04:51.261Z,99.90
2023-03-15T08:07:18.048Z,99.90
2023-03-15T08:09:44.854Z,99.90
2023-03-15T08:12:11.746Z,99.90
2023-03-15T08:14:38.415Z,99.90
2023-03-15T08:17:05.159Z,99.90
2023-03-15T08:19:32.905Z,99.90
2023-03-15T08:21:59.689Z,99.90
2023-03-15T08:24:27.089Z,99.90
2023-03-15T08:26:53.720Z,99.90
2023-03-15T08:29:20.563Z,99.90
2023-03-15T08:31:47.303Z,99.90
2023-03-15T08:34:14.094Z,99.90
2023-03-15T08:36:41.805Z,99.90
2023-03-15T08:39:08.615Z,99.90
2023-03-15T08:41:35.281Z,99.90
2023-03-15T08:44:01.963Z,99.90
2023-03-15T08:46:28.675Z,99.90
2023-03-15T08:48:55.374Z,99.90
2023-03-15T08:51:22.191Z,99.90
2023-03-15T08:53:48.877Z,99.90
2023-03-15T08:56:15.617Z,99.90
2023-03-15T08:58:42.319Z,99.90
2023-03-15T09:01:14.817Z,99.90
2023-03-15T09:03:44.852Z,99.90
2023-03-15T09:06:11.594Z,99.90
2023-03-15T09:08:38.336Z,99.90
2023-03-15T09:11:05.354Z,99.90
2023-03-15T09:13:31.959Z,99.90
2023-03-15T09:15:58.633Z,99.90
2023-03-15T09:18:25.787Z,99.90
2023-03-15T09:20:52.506Z,99.90
2023-03-15T09:23:19.207Z,99.90
2023-03-15T09:25:45.886Z,99.90
2023-03-15T09:28:12.732Z,99.90
2023-03-15T09:30:41.365Z,99.90
2023-03-15T09:33:08.912Z,99.90
2023-03-15T09:35:35.802Z,99.90
2023-03-15T09:38:03.814Z,99.90
2023-03-15T09:40:34.136Z,99.90
2023-03-15T09:43:21.212Z,99.90
2023-03-15T09:45:55.277Z,99.90
2023-03-15T09:48:45.804Z,99.90
2023-03-15T09:51:36.579Z,99.90
2023-03-15T09:54:23.587Z,99.90
2023-03-15T09:57:06.752Z,99.90
2023-03-15T09:59:36.320Z,99.90
2023-03-15T10:02:29.347Z,99.90
2023-03-15T10:05:10.731Z,99.90
2023-03-15T10:07:37.427Z,99.90
2023-03-15T10:10:14.298Z,99.90
2023-03-15T10:12:46.468Z,99.90
2023-03-15T10:15:35.916Z,99.90
2023-03-15T10:18:26.797Z,99.90
2023-03-15T10:21:10.517Z,99.90
2023-03-15T10:23:47.803Z,99.90
2023-03-15T10:26:18.942Z,99.90
2023-03-15T10:28:45.846Z,99.90
2023-03-15T10:31:22.881Z,99.90
2023-03-15T10:33:54.035Z,99.90
2023-03-15T10:36:23.141Z,99.90
2023-03-15T10:38:50.510Z,99.90
2023-03-15T10:41:41.212Z,99.90
2023-03-15T10:44:28.154Z,99.90
2023-03-15T10:47:21.950Z,99.90
2023-03-15T10:49:49.351Z,99.90
2023-03-15T10:52:34.360Z,99.90
2023-03-15T10:55:05.266Z,99.90
2023-03-15T10:57:39.803Z,99.90
2023-03-15T11:00:31.726Z,99.90
2023-03-15T11:03:18.195Z,99.90
2023-03-15T11:05:53.893Z,99.90
2023-03-15T11:08:24.033Z,99.30
2023-03-15T11:10:58.980Z,97.40
2023-03-15T11:13:28.273Z,98.70
2023-03-15T11:15:55.025Z,98.40
2023-03-15T11:18:29.572Z,97.60
2023-03-15T11:20:57.891Z,96.90
2023-03-15T11:23:28.886Z,96.40
2023-03-15T11:25:56.224Z,96.70
2023-03-15T11:28:32.750Z,96.60
2023-03-15T11:31:01.015Z,97.50
2023-03-15T11:33:34.008Z,96.30
2023-03-15T11:36:04.466Z,96.30
2023-03-15T11:38:37.532Z,96.80
2023-03-15T11:41:35.978Z,96.60
2023-03-15T11:44:18.223Z,96.80
2023-03-15T11:46:49.962Z,96.60
2023-03-15T11:49:37.323Z,96.80
2023-03-15T11:52:04.966Z,97.60
2023-03-15T11:54:32.421Z,97.50
2023-03-15T11:57:07.687Z,97.40
2023-03-15T11:59:37.792Z,98.30
2023-03-15T12:02:27.688Z,97.70
2023-03-15T12:04:57.112Z,98.40
2023-03-15T12:07:31.260Z,98.00
2023-03-15T12:10:19.217Z,97.60
2023-03-15T12:12:47.743Z,97.70
2023-03-15T12:15:14.450Z,97.70
2023-03-15T12:18:06.283Z,98.30
2023-03-15T12:20:40.817Z,95.60
2023-03-15T12:23:19.428Z,94.60
2023-03-15T12:26:06.207Z,94.40
2023-03-15T12:28:39.209Z,95.50
2023-03-15T12:31:12.921Z,95.40
2023-03-15T12:33:58.453Z,95.00
2023-03-15T12:36:47.294Z,94.70
2023-03-15T12:39:17.062Z,95.60
2023-03-15T12:41:46.724Z,93.80
2023-03-15T12:44:31.774Z,95.60
2023-03-15T12:47:12.157Z,95.20
2023-03-15T12:49:44.306Z,94.40
2023-03-15T12:52:10.953Z,95.80
2023-03-15T12:54:49.480Z,95.80
2023-03-15T12:57:30.187Z,95.70
2023-03-15T13:00:22.325Z,96.10
2023-03-15T13:03:08.134Z,96.30
2023-03-15T13:06:03.203Z,95.50
2023-03-15T13:08:38.981Z,96.70
2023-03-15T13:11:11.179Z,98.20
2023-03-15T13:13:40.624Z,99.90
2023-03-15T13:16:07.436Z,99.90
2023-03-15T13:18:41.962Z,99.90
2023-03-15T13:21:41.862Z,99.90
2023-03-15T13:24:21.718Z,99.90
2023-03-15T13:27:01.271Z,99.90
2023-03-15T13:29:32.348Z,99.90
2023-03-15T13:32:22.163Z,99.90
2023-03-15T13:34:49.377Z,99.90
2023-03-15T13:37:25.740Z,99.90
2023-03-15T13:39:55.647Z,99.90
2023-03-15T13:42:24.203Z,99.90
2023-03-15T13:45:23.456Z,99.90
2023-03-15T13:47:50.182Z,99.90
2023-03-15T13:50:20.281Z,99.90
2023-03-15T13:52:48.290Z,99.90
2023-03-15T13:55:19.834Z,99.90
2023-03-15T13:57:55.073Z,99.90
2023-03-15T14:00:23.253Z,99.90
2023-03-15T14:03:02.655Z,99.90
2023-03-15T14:05:32.936Z,99.90
2023-03-15T14:08:02.989Z,99.90
2023-03-15T14:10:33.744Z,99.90
2023-03-15T14:13:17.718Z,99.90
2023-03-15T14:15:46.500Z,99.90
2023-03-15T14:18:23.933Z,99.90
2023-03-15T14:21:31.433Z,99.90
2023-03-15T14:24:06.315Z,99.90
2023-03-15T14:26:33.802Z,99.90
2023-03-15T14:29:08.354Z,99.90
2023-03-15T14:31:40.225Z,99.90
2023-03-15T14:34:29.940Z,99.90
2023-03-15T14:36:59.911Z,99.90
2023-03-15T14:39:30.238Z,99.90
2023-03-15T14:41:56.915Z,99.90
2023-03-15T14:44:23.606Z,99.90
2023-03-15T14:46:50.822Z,99.90
2023-03-15T14:49:23.984Z,99.90
2023-03-15T14:51:55.905Z,99.90
2023-03-15T14:54:22.956Z,99.90
2023-03-15T14:56:49.602Z,99.90
2023-03-15T14:59:16.380Z,99.90
2023-03-15T15:01:49.263Z,99.90
2023-03-15T15:04:16.909Z,99.90
2023-03-15T15:06:52.976Z,99.90
2023-03-15T15:09:24.929Z,99.90
2023-03-15T15:11:52.835Z,99.90
2023-03-15T15:14:20.193Z,99.90
2023-03-15T15:16:46.898Z,99.90
2023-03-15T15:19:15.050Z,99.90
2023-03-15T15:21:43.268Z,99.90
2023-03-15T15:24:16.248Z,99.90
2023-03-15T15:26:43.819Z,99.90
2023-03-15T15:29:13.970Z,99.90
2023-03-15T15:31:41.610Z,99.90
2023-03-15T15:34:09.439Z,99.90
2023-03-15T15:36:45.944Z,99.90
2023-03-15T15:39:27.590Z,99.90
2023-03-15T15:41:54.410Z,99.90
2023-03-15T15:44:23.913Z,99.90
2023-03-15T15:46:50.729Z,99.90
2023-03-15T15:49:18.142Z,99.90
2023-03-15T15:51:46.336Z,99.90
2023-03-15T15:54:22.757Z,99.90
2023-03-15T15:56:52.860Z,99.90
2023-03-15T15:59:20.376Z,99.90
2023-03-15T16:02:00.246Z,99.90
2023-03-15T16:04:28.773Z,99.90
2023-03-15T16:07:04.251Z,99.90
2023-03-15T16:09:35.862Z,99.90
2023-03-15T16:12:03.185Z,99.90
2023-03-15T16:14:29.873Z,99.90
2023-03-15T16:16:56.609Z,99.90
2023-03-15T16:19:23.439Z,99.90
2023-03-15T16:21:54.358Z,99.90
2023-03-15T16:24:28.086Z,99.90
2023-03-15T16:27:04.940Z,99.90
2023-03-15T16:29:40.991Z,99.90
2023-03-15T16:32:18.940Z,99.90
2023-03-15T16:34:52.282Z,99.90
2023-03-15T16:37:25.690Z,99.90
2023-03-15T16:39:55.885Z,99.90
2023-03-15T16:42:25.978Z,99.90
2023-03-15T16:44:53.113Z,99.90
2023-03-15T16:47:20.099Z,99.90
2023-03-15T16:49:46.821Z,99.90
2023-03-15T16:52:16.635Z,99.90
2023-03-15T16:54:44.772Z,99.90
2023-03-15T16:57:31.866Z,99.90
2023-03-15T16:59:58.537Z,99.90
2023-03-15T17:02:27.717Z,99.90
2023-03-15T17:04:54.877Z,99.90
2023-03-15T17:07:28.060Z,99.90
2023-03-15T17:09:55.053Z,99.90
2023-03-15T17:12:27.127Z,99.90
2023-03-15T17:14:56.790Z,99.90
2023-03-15T17:17:26.409Z,99.90
2023-03-15T17:19:53.139Z,99.90
2023-03-15T17:22:21.371Z,99.90
2023-03-15T17:24:48.795Z,99.90
2023-03-15T17:27:35.334Z,99.90
2023-03-15T17:30:02.419Z,99.90
2023-03-15T17:32:29.283Z,99.90
2023-03-15T17:34:58.871Z,99.90
2023-03-15T17:37:26.993Z,99.90
2023-03-15T17:39:53.961Z,99.90
2023-03-15T17:42:20.748Z,99.90
2023-03-15T17:44:47.388Z,99.90
2023-03-15T17:47:14.214Z,99.90
2023-03-15T17:49:40.930Z,99.90
2023-03-15T17:52:18.126Z,99.90
2023-03-15T17:54:46.068Z,99.90
2023-03-15T17:57:12.974Z,99.90
2023-03-15T17:59:39.787Z,99.90
2023-03-15T18:02:15.382Z,99.90
2023-03-15T18:04:42.372Z,99.90
2023-03-15T18:07:09.056Z,99.90
2023-03-15T18:09:35.767Z,99.90
2023-03-15T18:12:02.536Z,99.90
2023-03-15T18:14:30.926Z,99.90
2023-03-15T18:16:57.634Z,99.90
2023-03-15T18:19:24.922Z,99.90
2023-03-15T18:21:51.563Z,99.90
2023-03-15T18:24:19.106Z,99.90
2023-03-15T18:26:45.779Z,99.90
2023-03-15T18:29:12.385Z,99.90
2023-03-15T18:31:39.248Z,99.90
2023-03-15T18:34:06.640Z,99.90
2023-03-15T18:36:33.381Z,99.90
2023-03-15T18:39:00.131Z,99.90
2023-03-15T18:41:27.098Z,99.90
2023-03-15T18:43:53.838Z,99.90
2023-03-15T18:46:25.080Z,99.90
2023-03-15T18:48:56.155Z,99.90
2023-03-15T18:51:28.366Z,99.90
2023-03-15T18:53:56.568Z,99.90
2023-03-15T18:56:26.065Z,99.90
2023-03-15T18:58:53.801Z,99.90
2023-03-15T19:01:24.942Z,99.90
2023-03-15T19:03:53.369Z,99.90
2023-03-15T19:06:21.253Z,99.90
2023-03-15T19:08:53.178Z,99.90
2023-03-15T19:11:21.179Z,99.90
2023-03-15T19:13:51.060Z,99.90
2023-03-15T19:16:21.490Z,99.90
2023-03-15T19:18:49.430Z,99.90
2023-03-15T19:21:16.808Z,99.90
2023-03-15T19:23:43.411Z,99.90
2023-03-15T19:26:10.337Z,99.90
2023-03-15T19:28:37.048Z,99.90
2023-03-15T19:31:03.791Z,99.90
2023-03-15T19:33:30.550Z,99.90
2023-03-15T19:35:57.335Z,99.90
2023-03-15T19:38:24.109Z,99.90
2023-03-15T19:40:55.074Z,99.90
2023-03-15T19:43:23.628Z,99.90
2023-03-15T19:45:50.811Z,99.90
2023-03-15T19:48:17.529Z,99.90
2023-03-15T19:50:44.269Z,99.90
2023-03-15T19:53:12.206Z,99.90
2023-03-15T19:55:38.897Z,99.90
2023-03-15T19:58:08.705Z,99.90
2023-03-15T20:00:35.360Z,99.90
2023-03-15T20:03:02.049Z,99.90
2023-03-15T20:05:28.727Z,99.90
2023-03-15T20:07:55.481Z,99.90
2023-03-15T20:10:22.583Z,99.90
2023-03-15T20:12:49.636Z,99.90
2023-03-15T20:15:18.579Z,99.90
2023-03-15T20:17:45.545Z,99.90
2023-03-15T20:20:13.694Z,99.90
2023-03-15T20:22:42.662Z,99.90
2023-03-15T20:25:12.046Z,99.90
2023-03-15T20:27:38.772Z,99.90
2023-03-15T20:30:07.516Z,99.90
2023-03-15T20:32:34.310Z,99.90
2023-03-15T20:35:02.294Z,99.90
2023-03-15T20:37:30.464Z,99.90
2023-03-15T20:39:57.126Z,99.90
2023-03-15T20:42:24.763Z,99.90
2023-03-15T20:44:52.587Z,99.90
2023-03-15T20:47:19.486Z,99.90
2023-03-15T20:49:46.163Z,99.90
2023-03-15T20:52:13.183Z,99.90
2023-03-15T20:54:39.789Z,99.90
2023-03-15T20:57:07.083Z,99.90
2023-03-15T20:59:33.761Z,99.90
2023-03-15T21:02:00.892Z,99.90
2023-03-15T21:04:28.332Z,99.90
2023-03-15T21:06:55.657Z,99.90
2023-03-15T21:09:22.549Z,99.90
2023-03-15T21:11:49.199Z,99.90
2023-03-15T21:14:15.849Z,99.90
2023-03-15T21:16:42.584Z,99.90
2023-03-15T21:19:09.333Z,99.90
2023-03-15T21:21:36.274Z,99.90
2023-03-15T21:24:06.166Z,99.90
2023-03-15T21:26:32.854Z,99.90
2023-03-15T21:29:00.544Z,99.90
2023-03-15T21:31:27.433Z,99.90
2023-03-15T21:33:54.094Z,99.90
2023-03-15T21:36:20.873Z,99.90
2023-03-15T21:38:47.534Z,99.90
2023-03-15T21:41:14.238Z,99.90
2023-03-15T21:43:40.924Z,99.90
2023-03-15T21:46:10.667Z,99.90
2023-03-15T21:48:37.901Z,99.90
2023-03-15T21:51:06.433Z,99.90
2023-03-15T21:53:34.027Z,99.90
2023-03-15T21:56:02.206Z,99.90
2023-03-15T21:58:29.481Z,99.90
2023-03-15T22:01:05.033Z,99.90
2023-03-15T22:03:33.221Z,99.90
2023-03-15T22:06:00.233Z,99.90
2023-03-15T22:08:27.271Z,99.90
2023-03-15T22:10:57.397Z,99.90
2023-03-15T22:13:24.805Z,99.90
2023-03-15T22:15:52.332Z,99.90
2023-03-15T22:18:19.724Z,99.90
2023-03-15T22:20:48.580Z,99.90
2023-03-15T22:23:15.441Z,99.90
2023-03-15T22:25:42.164Z,99.90
2023-03-15T22:28:08.856Z,99.90
2023-03-15T22:30:36.022Z,99.90
2023-03-15T22:33:02.747Z,99.90
2023-03-15T22:35:29.543Z,99.90
2023-03-15T22:37:59.070Z,99.90
2023-03-15T22:40:28.341Z,99.90
2023-03-15T22:42:57.187Z,99.90
2023-03-15T22:45:26.156Z,99.90
2023-03-15T22:47:53.204Z,99.90
2023-03-15T22:50:20.306Z,99.90
2023-03-15T22:52:47.711Z,99.90
2023-03-15T22:55:14.448Z,99.90
2023-03-15T22:57:41.114Z,99.90
2023-03-15T23:00:14.023Z,99.90
2023-03-15T23:02:44.461Z,99.90
2023-03-15T23:05:12.591Z,99.90
2023-03-15T23:07:39.703Z,99.90
2023-03-15T23:10:07.467Z,99.90
2023-03-15T23:12:36.526Z,99.90
2023-03-15T23:15:04.761Z,99.90
2023-03-15T23:17:31.809Z,99.90
2023-03-15T23:19:58.616Z,99.90
2023-03-15T23:22:25.309Z,99.90
2023-03-15T23:24:52.018Z,99.90
2023-03-15T23:27:18.928Z,99.90
2023-03-15T23:29:54.094Z,99.90
2023-03-15T23:32:22.248Z,99.90
2023-03-15T23:34:49.062Z,99.90
2023-03-15T23:37:15.714Z,99.90
2023-03-15T23:39:42.888Z,99.90
2023-03-15T23:42:10.151Z,99.90
2023-03-15T23:44:36.819Z,99.90
2023-03-15T23:47:05.808Z,99.90
2023-03-15T23:49:33.645Z,99.90
2023-03-15T23:52:06.126Z,99.90
2023-03-15T23:54:41.188Z,99.90
2023-03-15T23:57:13.170Z,99.90
2023-03-15T23:59:41.543Z,99.90
